sensor_id;sensor_type;location;lat;lon;timestamp;temperature;humidity
21772;DHT22;11047;47.904;8.110;2023-04-03T00:01:25;3.60;99.90
21772;DHT22;11047;47.904;8.110;2023-04-03T00:03:52;3.60;99.90
21772;DHT22;11047;47.904;8.110;2023-04-03T00:06:20;3.60;99.90
21772;DHT22;11047;47.904;8.110;2023-04-03T00:08:47;3.40;99.90
21772;DHT22;11047;47.904;8.110;2023-04-03T00:11:14;3.40;99.90
21772;DHT22;11047;47.904;8.110;2023-04-03T00:13:43;3.40;99.90
21772;DHT22;11047;47.904;8.110;2023-04-03T00:16:11;3.30;99.90
21772;DHT22;11047;47.904;8.110;2023-04-03T00:18:38;3.30;99.90
21772;DHT22;11047;47.904;8.110;2023-04-03T00:21:06;3.40;99.90
21772;DHT22;11047;47.904;8.110;2023-04-03T00:23:34;3.40;99.90
21772;DHT22;11047;47.904;8.110;2023-04-03T00:26:01;3.40;99.90
21772;DHT22;11047;47.904;8.110;2023-04-03T00:28:28;3.40;99.90
21772;DHT22;11047;47.904;8.110;2023-04-03T00:30:56;3.40;99.90
21772;DHT22;11047;47.904;8.110;2023-04-03T00:33:23;3.50;99.90
21772;DHT22;11047;47.904;8.110;2023-04-03T00:35:50;3.40;99.90
21772;DHT22;11047;47.904;8.110;2023-04-03T00:38:18;3.40;99.90
21772;DHT22;11047;47.904;8.110;2023-04-03T00:40:46;3.40;99.90
21772;DHT22;11047;47.904;8.110;2023-04-03T00:43:16;3.40;99.90
21772;DHT22;11047;47.904;8.110;2023-04-03T00:45:44;3.30;99.90
21772;DHT22;11047;47.904;8.110;2023-04-03T00:48:15;3.30;99.90
21772;DHT22;11047;47.904;8.110;2023-04-03T00:50:44;3.30;99.90
21772;DHT22;11047;47.904;8.110;2023-04-03T00:53:14;3.30;99.90
21772;DHT22;11047;47.904;8.110;2023-04-03T00:55:43;3.20;99.90
21772;DHT22;11047;47.904;8.110;2023-04-03T00:58:12;3.30;99.90
21772;DHT22;11047;47.904;8.110;2023-04-03T01:00:43;3.20;99.90
21772;DHT22;11047;47.904;8.110;2023-04-03T01:03:12;3.20;99.90
21772;DHT22;11047;47.904;8.110;2023-04-03T01:05:40;3.20;99.90
21772;DHT22;11047;47.904;8.110;2023-04-03T01:08:07;3.10;99.90
21772;DHT22;11047;47.904;8.110;2023-04-03T01:10:34;3.20;99.90
21772;DHT22;11047;47.904;8.110;2023-04-03T01:13:01;3.20;99.90
21772;DHT22;11047;47.904;8.110;2023-04-03T01:15:28;3.40;99.90
21772;DHT22;11047;47.904;8.110;2023-04-03T01:17:58;3.20;99.90
21772;DHT22;11047;47.904;8.110;2023-04-03T01:23:36;3.10;99.90
21772;DHT22;11047;47.904;8.110;2023-04-03T01:26:08;3.10;99.90
21772;DHT22;11047;47.904;8.110;2023-04-03T01:28:37;3.10;99.90
21772;DHT22;11047;47.904;8.110;2023-04-03T01:31:10;3.10;99.90
21772;DHT22;11047;47.904;8.110;2023-04-03T01:33:42;3.10;99.90
21772;DHT22;11047;47.904;8.110;2023-04-03T01:36:10;3.10;99.90
21772;DHT22;11047;47.904;8.110;2023-04-03T01:38:39;3.00;99.90
21772;DHT22;11047;47.904;8.110;2023-04-03T01:41:06;3.10;99.90
21772;DHT22;11047;47.904;8.110;2023-04-03T01:43:33;3.00;99.90
21772;DHT22;11047;47.904;8.110;2023-04-03T01:46:00;3.00;99.90
21772;DHT22;11047;47.904;8.110;2023-04-03T01:48:27;3.10;99.90
21772;DHT22;11047;47.904;8.110;2023-04-03T01:50:55;3.00;99.90
21772;DHT22;11047;47.904;8.110;2023-04-03T01:53:22;3.00;99.90
21772;DHT22;11047;47.904;8.110;2023-04-03T01:55:49;3.00;99.90
21772;DHT22;11047;47.904;8.110;2023-04-03T01:58:16;3.00;99.90
21772;DHT22;11047;47.904;8.110;2023-04-03T02:00:43;3.00;99.90
21772;DHT22;11047;47.904;8.110;2023-04-03T02:03:10;2.90;99.90
21772;DHT22;11047;47.904;8.110;2023-04-03T02:05:37;2.90;99.90
21772;DHT22;11047;47.904;8.110;2023-04-03T02:08:06;2.90;99.90
21772;DHT22;11047;47.904;8.110;2023-04-03T02:10:33;2.90;99.90
21772;DHT22;11047;47.904;8.110;2023-04-03T02:12:59;2.80;99.90
21772;DHT22;11047;47.904;8.110;2023-04-03T02:15:26;2.80;99.90
21772;DHT22;11047;47.904;8.110;2023-04-03T02:17:53;2.80;99.90
21772;DHT22;11047;47.904;8.110;2023-04-03T02:20:20;2.90;99.90
21772;DHT22;11047;47.904;8.110;2023-04-03T02:22:47;2.80;99.90
21772;DHT22;11047;47.904;8.110;2023-04-03T02:25:16;2.90;99.90
21772;DHT22;11047;47.904;8.110;2023-04-03T02:27:44;2.90;99.90
21772;DHT22;11047;47.904;8.110;2023-04-03T02:30:11;2.80;99.90
21772;DHT22;11047;47.904;8.110;2023-04-03T02:32:40;2.80;99.90
21772;DHT22;11047;47.904;8.110;2023-04-03T02:35:08;2.80;99.90
21772;DHT22;11047;47.904;8.110;2023-04-03T02:37:35;2.70;99.90
21772;DHT22;11047;47.904;8.110;2023-04-03T02:40:03;2.70;99.90
21772;DHT22;11047;47.904;8.110;2023-04-03T02:42:31;2.70;99.90
21772;DHT22;11047;47.904;8.110;2023-04-03T02:44:58;2.60;99.90
21772;DHT22;11047;47.904;8.110;2023-04-03T02:47:26;2.60;99.90
21772;DHT22;11047;47.904;8.110;2023-04-03T02:49:52;2.40;99.90
21772;DHT22;11047;47.904;8.110;2023-04-03T02:52:20;2.50;99.90
21772;DHT22;11047;47.904;8.110;2023-04-03T02:54:47;2.50;99.90
21772;DHT22;11047;47.904;8.110;2023-04-03T02:57:14;2.50;99.90
21772;DHT22;11047;47.904;8.110;2023-04-03T02:59:42;2.60;99.90
21772;DHT22;11047;47.904;8.110;2023-04-03T03:02:10;2.60;99.90
21772;DHT22;11047;47.904;8.110;2023-04-03T03:04:37;2.60;99.90
21772;DHT22;11047;47.904;8.110;2023-04-03T03:07:04;2.60;99.90
21772;DHT22;11047;47.904;8.110;2023-04-03T03:09:31;2.50;99.90
21772;DHT22;11047;47.904;8.110;2023-04-03T03:11:58;2.60;99.90
21772;DHT22;11047;47.904;8.110;2023-04-03T03:14:25;2.60;99.90
21772;DHT22;11047;47.904;8.110;2023-04-03T03:16:53;2.60;99.90
21772;DHT22;11047;47.904;8.110;2023-04-03T03:19:20;2.50;99.90
21772;DHT22;11047;47.904;8.110;2023-04-03T03:21:47;2.40;99.90
21772;DHT22;11047;47.904;8.110;2023-04-03T03:24:14;2.30;99.90
21772;DHT22;11047;47.904;8.110;2023-04-03T03:26:43;2.20;99.90
21772;DHT22;11047;47.904;8.110;2023-04-03T03:29:10;2.10;99.90
21772;DHT22;11047;47.904;8.110;2023-04-03T03:31:37;2.10;99.90
21772;DHT22;11047;47.904;8.110;2023-04-03T03:34:05;2.10;99.90
21772;DHT22;11047;47.904;8.110;2023-04-03T03:36:32;2.20;99.90
21772;DHT22;11047;47.904;8.110;2023-04-03T03:38:58;2.30;99.90
21772;DHT22;11047;47.904;8.110;2023-04-03T03:41:25;2.40;99.90
21772;DHT22;11047;47.904;8.110;2023-04-03T03:43:52;2.40;99.90
21772;DHT22;11047;47.904;8.110;2023-04-03T03:46:19;2.50;99.90
21772;DHT22;11047;47.904;8.110;2023-04-03T03:48:46;2.30;99.90
21772;DHT22;11047;47.904;8.110;2023-04-03T03:51:14;2.20;99.90
21772;DHT22;11047;47.904;8.110;2023-04-03T03:53:41;2.20;99.90
21772;DHT22;11047;47.904;8.110;2023-04-03T03:56:08;2.20;99.90
21772;DHT22;11047;47.904;8.110;2023-04-03T03:58:36;2.20;99.90
21772;DHT22;11047;47.904;8.110;2023-04-03T04:01:03;2.20;99.90
21772;DHT22;11047;47.904;8.110;2023-04-03T04:03:31;2.30;99.90
21772;DHT22;11047;47.904;8.110;2023-04-03T04:05:57;2.20;99.90
21772;DHT22;11047;47.904;8.110;2023-04-03T04:08:26;2.20;99.90
21772;DHT22;11047;47.904;8.110;2023-04-03T04:10:53;2.20;99.90
21772;DHT22;11047;47.904;8.110;2023-04-03T04:13:20;2.20;99.90
21772;DHT22;11047;47.904;8.110;2023-04-03T04:15:47;2.20;99.90
21772;DHT22;11047;47.904;8.110;2023-04-03T04:18:14;2.10;99.90
21772;DHT22;11047;47.904;8.110;2023-04-03T04:20:41;2.10;99.90
21772;DHT22;11047;47.904;8.110;2023-04-03T04:23:08;2.10;99.90
21772;DHT22;11047;47.904;8.110;2023-04-03T04:25:36;2.00;99.90
21772;DHT22;11047;47.904;8.110;2023-04-03T04:28:03;2.00;99.90
21772;DHT22;11047;47.904;8.110;2023-04-03T04:30:30;2.10;99.90
21772;DHT22;11047;47.904;8.110;2023-04-03T04:32:57;2.00;99.90
21772;DHT22;11047;47.904;8.110;2023-04-03T04:35:24;1.90;99.90
21772;DHT22;11047;47.904;8.110;2023-04-03T04:37:50;1.90;99.90
21772;DHT22;11047;47.904;8.110;2023-04-03T04:40:17;2.00;99.90
21772;DHT22;11047;47.904;8.110;2023-04-03T04:42:46;1.90;99.90
21772;DHT22;11047;47.904;8.110;2023-04-03T04:45:13;1.90;99.90
21772;DHT22;11047;47.904;8.110;2023-04-03T04:47:40;1.90;99.90
21772;DHT22;11047;47.904;8.110;2023-04-03T04:50:08;1.80;99.90
21772;DHT22;11047;47.904;8.110;2023-04-03T04:52:35;1.80;99.90
21772;DHT22;11047;47.904;8.110;2023-04-03T04:55:03;1.80;99.90
21772;DHT22;11047;47.904;8.110;2023-04-03T04:57:30;1.80;99.90
21772;DHT22;11047;47.904;8.110;2023-04-03T04:59:58;1.80;99.90
21772;DHT22;11047;47.904;8.110;2023-04-03T05:02:25;1.70;99.90
21772;DHT22;11047;47.904;8.110;2023-04-03T05:04:52;1.70;99.90
21772;DHT22;11047;47.904;8.110;2023-04-03T05:07:18;1.90;99.90
21772;DHT22;11047;47.904;8.110;2023-04-03T05:09:45;1.80;99.90
21772;DHT22;11047;47.904;8.110;2023-04-03T05:12:12;1.80;99.90
21772;DHT22;11047;47.904;8.110;2023-04-03T05:14:39;1.80;99.90
21772;DHT22;11047;47.904;8.110;2023-04-03T05:17:07;1.80;99.90
21772;DHT22;11047;47.904;8.110;2023-04-03T05:19:34;1.80;99.90
21772;DHT22;11047;47.904;8.110;2023-04-03T05:22:01;1.70;99.90
21772;DHT22;11047;47.904;8.110;2023-04-03T05:24:29;1.70;99.90
21772;DHT22;11047;47.904;8.110;2023-04-03T05:26:56;1.70;99.90
21772;DHT22;11047;47.904;8.110;2023-04-03T05:29:23;1.60;99.90
21772;DHT22;11047;47.904;8.110;2023-04-03T05:31:50;1.70;99.90
21772;DHT22;11047;47.904;8.110;2023-04-03T05:34:18;1.80;99.90
21772;DHT22;11047;47.904;8.110;2023-04-03T05:36:45;1.70;99.90
21772;DHT22;11047;47.904;8.110;2023-04-03T05:39:12;1.80;99.90
21772;DHT22;11047;47.904;8.110;2023-04-03T05:41:39;1.70;99.90
21772;DHT22;11047;47.904;8.110;2023-04-03T05:44:06;1.70;99.90
21772;DHT22;11047;47.904;8.110;2023-04-03T05:46:33;1.70;99.90
21772;DHT22;11047;47.904;8.110;2023-04-03T05:49:00;2.00;99.90
21772;DHT22;11047;47.904;8.110;2023-04-03T05:51:31;1.70;99.90
21772;DHT22;11047;47.904;8.110;2023-04-03T05:54:06;2.00;99.90
21772;DHT22;11047;47.904;8.110;2023-04-03T05:56:33;1.70;99.90
21772;DHT22;11047;47.904;8.110;2023-04-03T05:59:00;1.70;99.90
21772;DHT22;11047;47.904;8.110;2023-04-03T06:01:27;1.70;99.90
21772;DHT22;11047;47.904;8.110;2023-04-03T06:03:56;1.70;99.90
21772;DHT22;11047;47.904;8.110;2023-04-03T06:06:24;1.60;99.90
21772;DHT22;11047;47.904;8.110;2023-04-03T06:08:52;1.60;99.90
21772;DHT22;11047;47.904;8.110;2023-04-03T06:11:19;1.50;99.90
21772;DHT22;11047;47.904;8.110;2023-04-03T06:13:47;1.50;99.90
21772;DHT22;11047;47.904;8.110;2023-04-03T06:16:15;1.50;99.90
21772;DHT22;11047;47.904;8.110;2023-04-03T06:18:43;1.50;99.90
21772;DHT22;11047;47.904;8.110;2023-04-03T06:21:34;1.50;99.90
21772;DHT22;11047;47.904;8.110;2023-04-03T06:24:03;1.50;99.90
21772;DHT22;11047;47.904;8.110;2023-04-03T06:26:30;1.50;99.90
21772;DHT22;11047;47.904;8.110;2023-04-03T06:28:57;1.50;99.90
21772;DHT22;11047;47.904;8.110;2023-04-03T06:31:24;1.50;99.90
21772;DHT22;11047;47.904;8.110;2023-04-03T06:33:51;1.50;99.90
21772;DHT22;11047;47.904;8.110;2023-04-03T06:36:19;1.60;99.90
21772;DHT22;11047;47.904;8.110;2023-04-03T06:38:47;1.60;99.90
21772;DHT22;11047;47.904;8.110;2023-04-03T06:41:16;1.50;99.90
21772;DHT22;11047;47.904;8.110;2023-04-03T06:43:43;1.50;99.90
21772;DHT22;11047;47.904;8.110;2023-04-03T06:46:14;1.60;99.90
21772;DHT22;11047;47.904;8.110;2023-04-03T06:48:44;1.80;99.90
21772;DHT22;11047;47.904;8.110;2023-04-03T06:51:17;1.80;99.90
21772;DHT22;11047;47.904;8.110;2023-04-03T06:53:44;1.60;99.90
21772;DHT22;11047;47.904;8.110;2023-04-03T06:56:11;1.60;99.90
21772;DHT22;11047;47.904;8.110;2023-04-03T06:58:40;1.60;99.90
21772;DHT22;11047;47.904;8.110;2023-04-03T07:01:07;1.60;99.90
21772;DHT22;11047;47.904;8.110;2023-04-03T07:03:35;1.70;99.90
21772;DHT22;11047;47.904;8.110;2023-04-03T07:06:02;1.80;99.90
21772;DHT22;11047;47.904;8.110;2023-04-03T07:08:29;1.70;99.90
21772;DHT22;11047;47.904;8.110;2023-04-03T07:10:56;1.80;99.90
21772;DHT22;11047;47.904;8.110;2023-04-03T07:13:23;2.00;99.90
21772;DHT22;11047;47.904;8.110;2023-04-03T07:15:52;1.80;99.90
21772;DHT22;11047;47.904;8.110;2023-04-03T07:18:19;1.80;99.90
21772;DHT22;11047;47.904;8.110;2023-04-03T07:20:47;1.80;99.90
21772;DHT22;11047;47.904;8.110;2023-04-03T07:23:13;1.70;99.90
21772;DHT22;11047;47.904;8.110;2023-04-03T07:25:42;1.70;99.90
21772;DHT22;11047;47.904;8.110;2023-04-03T07:28:09;2.00;99.90
21772;DHT22;11047;47.904;8.110;2023-04-03T07:30:42;1.70;99.90
21772;DHT22;11047;47.904;8.110;2023-04-03T07:33:10;1.70;99.90
21772;DHT22;11047;47.904;8.110;2023-04-03T07:35:38;1.70;99.90
21772;DHT22;11047;47.904;8.110;2023-04-03T07:38:05;1.80;99.90
21772;DHT22;11047;47.904;8.110;2023-04-03T07:40:32;1.60;99.90
21772;DHT22;11047;47.904;8.110;2023-04-03T07:43:00;1.60;99.90
21772;DHT22;11047;47.904;8.110;2023-04-03T07:45:28;1.50;99.90
21772;DHT22;11047;47.904;8.110;2023-04-03T07:47:55;1.60;99.90
21772;DHT22;11047;47.904;8.110;2023-04-03T07:50:24;1.40;99.90
21772;DHT22;11047;47.904;8.110;2023-04-03T07:52:52;1.40;99.90
21772;DHT22;11047;47.904;8.110;2023-04-03T07:55:20;1.40;99.90
21772;DHT22;11047;47.904;8.110;2023-04-03T07:57:47;1.40;99.90
21772;DHT22;11047;47.904;8.110;2023-04-03T08:00:14;1.40;99.90
21772;DHT22;11047;47.904;8.110;2023-04-03T08:02:42;1.20;99.90
21772;DHT22;11047;47.904;8.110;2023-04-03T08:05:10;1.40;99.90
21772;DHT22;11047;47.904;8.110;2023-04-03T08:07:38;1.20;99.90
21772;DHT22;11047;47.904;8.110;2023-04-03T08:10:06;1.20;99.90
21772;DHT22;11047;47.904;8.110;2023-04-03T08:12:33;1.10;99.90
21772;DHT22;11047;47.904;8.110;2023-04-03T08:15:00;1.10;99.90
21772;DHT22;11047;47.904;8.110;2023-04-03T08:17:27;1.10;99.90
21772;DHT22;11047;47.904;8.110;2023-04-03T08:19:54;1.30;99.90
21772;DHT22;11047;47.904;8.110;2023-04-03T08:22:21;1.50;99.90
21772;DHT22;11047;47.904;8.110;2023-04-03T08:24:49;1.60;99.90
21772;DHT22;11047;47.904;8.110;2023-04-03T08:27:16;1.50;99.90
21772;DHT22;11047;47.904;8.110;2023-04-03T08:29:43;1.60;99.90
21772;DHT22;11047;47.904;8.110;2023-04-03T08:32:11;1.50;99.90
21772;DHT22;11047;47.904;8.110;2023-04-03T08:34:38;1.50;99.90
21772;DHT22;11047;47.904;8.110;2023-04-03T08:37:05;1.40;99.90
21772;DHT22;11047;47.904;8.110;2023-04-03T08:39:32;1.40;99.90
21772;DHT22;11047;47.904;8.110;2023-04-03T08:42:05;1.60;99.90
21772;DHT22;11047;47.904;8.110;2023-04-03T08:44:39;1.30;99.90
21772;DHT22;11047;47.904;8.110;2023-04-03T08:47:16;1.30;99.90
21772;DHT22;11047;47.904;8.110;2023-04-03T08:49:47;1.20;99.90
21772;DHT22;11047;47.904;8.110;2023-04-03T08:52:19;1.20;99.90
21772;DHT22;11047;47.904;8.110;2023-04-03T08:54:52;1.40;99.90
21772;DHT22;11047;47.904;8.110;2023-04-03T08:57:28;1.50;99.90
21772;DHT22;11047;47.904;8.110;2023-04-03T08:59:55;1.80;99.90
21772;DHT22;11047;47.904;8.110;2023-04-03T09:02:27;1.90;99.90
21772;DHT22;11047;47.904;8.110;2023-04-03T09:04:55;2.10;99.90
21772;DHT22;11047;47.904;8.110;2023-04-03T09:07:26;2.30;99.90
21772;DHT22;11047;47.904;8.110;2023-04-03T09:09:59;2.40;99.90
21772;DHT22;11047;47.904;8.110;2023-04-03T09:12:34;2.40;99.90
21772;DHT22;11047;47.904;8.110;2023-04-03T09:15:09;2.40;99.90
21772;DHT22;11047;47.904;8.110;2023-04-03T09:17:45;2.30;99.90
21772;DHT22;11047;47.904;8.110;2023-04-03T09:20:21;2.10;99.90
21772;DHT22;11047;47.904;8.110;2023-04-03T09:22:52;2.30;99.90
21772;DHT22;11047;47.904;8.110;2023-04-03T09:25:21;2.30;99.90
21772;DHT22;11047;47.904;8.110;2023-04-03T09:27:50;2.20;99.90
21772;DHT22;11047;47.904;8.110;2023-04-03T09:30:19;2.10;99.90
21772;DHT22;11047;47.904;8.110;2023-04-03T09:32:48;2.00;99.90
21772;DHT22;11047;47.904;8.110;2023-04-03T09:35:23;1.70;99.90
21772;DHT22;11047;47.904;8.110;2023-04-03T09:37:53;1.90;99.90
21772;DHT22;11047;47.904;8.110;2023-04-03T09:40:32;2.00;99.90
21772;DHT22;11047;47.904;8.110;2023-04-03T09:43:26;2.00;99.90
21772;DHT22;11047;47.904;8.110;2023-04-03T09:45:53;2.10;99.90
21772;DHT22;11047;47.904;8.110;2023-04-03T09:48:22;2.00;99.90
21772;DHT22;11047;47.904;8.110;2023-04-03T09:50:58;2.20;99.90
21772;DHT22;11047;47.904;8.110;2023-04-03T09:53:31;2.30;99.90
21772;DHT22;11047;47.904;8.110;2023-04-03T09:55:59;2.40;99.90
21772;DHT22;11047;47.904;8.110;2023-04-03T09:58:31;2.50;99.90
21772;DHT22;11047;47.904;8.110;2023-04-03T10:01:00;2.40;99.90
21772;DHT22;11047;47.904;8.110;2023-04-03T10:03:30;2.40;99.90
21772;DHT22;11047;47.904;8.110;2023-04-03T10:05:58;2.30;99.90
21772;DHT22;11047;47.904;8.110;2023-04-03T10:08:28;2.30;99.90
21772;DHT22;11047;47.904;8.110;2023-04-03T10:11:08;2.30;99.90
21772;DHT22;11047;47.904;8.110;2023-04-03T10:13:50;2.40;99.90
21772;DHT22;11047;47.904;8.110;2023-04-03T10:16:18;2.40;99.90
21772;DHT22;11047;47.904;8.110;2023-04-03T10:18:51;2.30;99.90
21772;DHT22;11047;47.904;8.110;2023-04-03T10:21:32;2.60;99.90
21772;DHT22;11047;47.904;8.110;2023-04-03T10:24:08;2.70;99.90
21772;DHT22;11047;47.904;8.110;2023-04-03T10:26:41;2.90;99.90
21772;DHT22;11047;47.904;8.110;2023-04-03T10:29:21;3.00;99.90
21772;DHT22;11047;47.904;8.110;2023-04-03T10:31:58;2.90;99.90
21772;DHT22;11047;47.904;8.110;2023-04-03T10:34:30;2.80;99.90
21772;DHT22;11047;47.904;8.110;2023-04-03T10:37:04;2.80;99.90
21772;DHT22;11047;47.904;8.110;2023-04-03T10:39:39;2.80;99.90
21772;DHT22;11047;47.904;8.110;2023-04-03T10:42:13;2.90;99.90
21772;DHT22;11047;47.904;8.110;2023-04-03T10:44:54;3.10;99.90
21772;DHT22;11047;47.904;8.110;2023-04-03T10:47:29;3.00;99.90
21772;DHT22;11047;47.904;8.110;2023-04-03T10:50:04;3.00;99.90
21772;DHT22;11047;47.904;8.110;2023-04-03T10:52:39;3.10;99.90
21772;DHT22;11047;47.904;8.110;2023-04-03T10:55:21;3.20;99.90
21772;DHT22;11047;47.904;8.110;2023-04-03T10:57:51;3.30;99.90
21772;DHT22;11047;47.904;8.110;2023-04-03T11:00:24;3.40;99.90
21772;DHT22;11047;47.904;8.110;2023-04-03T11:02:54;3.20;99.90
21772;DHT22;11047;47.904;8.110;2023-04-03T11:05:44;3.10;99.90
21772;DHT22;11047;47.904;8.110;2023-04-03T11:08:19;3.20;99.90
21772;DHT22;11047;47.904;8.110;2023-04-03T11:10:54;3.10;99.90
21772;DHT22;11047;47.904;8.110;2023-04-03T11:13:27;3.10;99.90
21772;DHT22;11047;47.904;8.110;2023-04-03T11:15:58;3.10;99.90
21772;DHT22;11047;47.904;8.110;2023-04-03T11:18:28;3.00;99.90
21772;DHT22;11047;47.904;8.110;2023-04-03T11:21:02;2.80;99.90
21772;DHT22;11047;47.904;8.110;2023-04-03T11:23:33;2.90;99.90
21772;DHT22;11047;47.904;8.110;2023-04-03T11:26:09;3.00;99.90
21772;DHT22;11047;47.904;8.110;2023-04-03T11:28:37;3.10;99.90
21772;DHT22;11047;47.904;8.110;2023-04-03T11:31:14;3.00;99.90
21772;DHT22;11047;47.904;8.110;2023-04-03T11:33:49;2.90;99.90
21772;DHT22;11047;47.904;8.110;2023-04-03T11:36:24;2.90;99.90
21772;DHT22;11047;47.904;8.110;2023-04-03T11:38:52;3.10;99.90
21772;DHT22;11047;47.904;8.110;2023-04-03T11:41:26;3.20;99.90
21772;DHT22;11047;47.904;8.110;2023-04-03T11:43:59;3.30;99.90
21772;DHT22;11047;47.904;8.110;2023-04-03T11:46:50;3.40;99.90
21772;DHT22;11047;47.904;8.110;2023-04-03T11:49:51;3.40;99.90
21772;DHT22;11047;47.904;8.110;2023-04-03T11:55:55;3.20;99.90
21772;DHT22;11047;47.904;8.110;2023-04-03T11:58:24;3.00;99.90
21772;DHT22;11047;47.904;8.110;2023-04-03T12:00:57;2.90;99.90
21772;DHT22;11047;47.904;8.110;2023-04-03T12:12:39;3.40;99.90
21772;DHT22;11047;47.904;8.110;2023-04-03T12:15:22;3.60;99.90
21772;DHT22;11047;47.904;8.110;2023-04-03T12:17:50;3.60;99.90
21772;DHT22;11047;47.904;8.110;2023-04-03T12:20:53;3.70;99.90
21772;DHT22;11047;47.904;8.110;2023-04-03T12:23:27;3.30;99.90
21772;DHT22;11047;47.904;8.110;2023-04-03T12:26:02;3.20;99.90
21772;DHT22;11047;47.904;8.110;2023-04-03T12:28:36;3.40;99.90
21772;DHT22;11047;47.904;8.110;2023-04-03T12:31:04;3.40;99.90
21772;DHT22;11047;47.904;8.110;2023-04-03T12:33:40;3.30;99.90
21772;DHT22;11047;47.904;8.110;2023-04-03T12:36:15;3.30;99.90
21772;DHT22;11047;47.904;8.110;2023-04-03T12:42:18;3.30;99.90
21772;DHT22;11047;47.904;8.110;2023-04-03T12:44:55;3.50;99.90
21772;DHT22;11047;47.904;8.110;2023-04-03T12:47:27;3.60;99.90
21772;DHT22;11047;47.904;8.110;2023-04-03T12:49:54;3.60;99.90
21772;DHT22;11047;47.904;8.110;2023-04-03T12:52:36;3.50;99.90
21772;DHT22;11047;47.904;8.110;2023-04-03T12:55:12;3.40;99.90
21772;DHT22;11047;47.904;8.110;2023-04-03T12:57:42;3.30;99.90
21772;DHT22;11047;47.904;8.110;2023-04-03T13:00:36;3.40;99.90
21772;DHT22;11047;47.904;8.110;2023-04-03T13:03:06;3.60;99.90
21772;DHT22;11047;47.904;8.110;2023-04-03T13:05:44;3.60;99.90
21772;DHT22;11047;47.904;8.110;2023-04-03T13:08:13;3.80;99.90
21772;DHT22;11047;47.904;8.110;2023-04-03T13:10:48;3.90;99.90
21772;DHT22;11047;47.904;8.110;2023-04-03T13:13:17;3.80;99.90
21772;DHT22;11047;47.904;8.110;2023-04-03T13:15:51;3.70;99.90
21772;DHT22;11047;47.904;8.110;2023-04-03T13:18:26;3.60;99.90
21772;DHT22;11047;47.904;8.110;2023-04-03T13:20:56;3.50;99.90
21772;DHT22;11047;47.904;8.110;2023-04-03T13:23:23;3.60;99.90
21772;DHT22;11047;47.904;8.110;2023-04-03T13:25:51;3.50;99.90
21772;DHT22;11047;47.904;8.110;2023-04-03T13:28:21;3.60;99.90
21772;DHT22;11047;47.904;8.110;2023-04-03T13:30:59;3.60;99.90
21772;DHT22;11047;47.904;8.110;2023-04-03T13:33:29;3.70;99.90
21772;DHT22;11047;47.904;8.110;2023-04-03T13:36:18;3.70;99.90
21772;DHT22;11047;47.904;8.110;2023-04-03T13:38:45;3.50;99.90
21772;DHT22;11047;47.904;8.110;2023-04-03T13:41:31;3.50;99.90
21772;DHT22;11047;47.904;8.110;2023-04-03T13:44:27;3.60;99.90
21772;DHT22;11047;47.904;8.110;2023-04-03T13:46:56;3.50;99.90
21772;DHT22;11047;47.904;8.110;2023-04-03T13:49:31;3.60;99.90
21772;DHT22;11047;47.904;8.110;2023-04-03T13:51:58;3.40;99.90
21772;DHT22;11047;47.904;8.110;2023-04-03T13:54:30;3.30;99.90
21772;DHT22;11047;47.904;8.110;2023-04-03T13:56:59;3.20;99.90
21772;DHT22;11047;47.904;8.110;2023-04-03T13:59:30;3.20;99.90
21772;DHT22;11047;47.904;8.110;2023-04-03T14:02:13;3.30;99.90
21772;DHT22;11047;47.904;8.110;2023-04-03T14:05:01;3.40;99.90
21772;DHT22;11047;47.904;8.110;2023-04-03T14:07:30;3.30;99.90
21772;DHT22;11047;47.904;8.110;2023-04-03T14:09:58;3.30;99.90
21772;DHT22;11047;47.904;8.110;2023-04-03T14:12:28;3.50;99.90
21772;DHT22;11047;47.904;8.110;2023-04-03T14:14:57;3.50;99.90
21772;DHT22;11047;47.904;8.110;2023-04-03T14:17:25;3.60;99.90
21772;DHT22;11047;47.904;8.110;2023-04-03T14:19:54;3.70;99.90
21772;DHT22;11047;47.904;8.110;2023-04-03T14:22:23;3.70;99.90
21772;DHT22;11047;47.904;8.110;2023-04-03T14:24:51;3.80;99.90
21772;DHT22;11047;47.904;8.110;2023-04-03T14:27:20;3.70;99.90
21772;DHT22;11047;47.904;8.110;2023-04-03T14:29:48;3.70;99.90
21772;DHT22;11047;47.904;8.110;2023-04-03T14:32:18;3.40;99.90
21772;DHT22;11047;47.904;8.110;2023-04-03T14:34:46;3.70;99.90
21772;DHT22;11047;47.904;8.110;2023-04-03T14:37:14;3.60;99.90
21772;DHT22;11047;47.904;8.110;2023-04-03T14:39:42;3.80;99.90
21772;DHT22;11047;47.904;8.110;2023-04-03T14:42:13;4.40;99.90
21772;DHT22;11047;47.904;8.110;2023-04-03T14:44:40;3.40;99.90
21772;DHT22;11047;47.904;8.110;2023-04-03T14:47:10;3.40;99.90
21772;DHT22;11047;47.904;8.110;2023-04-03T14:49:39;3.30;99.90
21772;DHT22;11047;47.904;8.110;2023-04-03T14:52:06;3.20;99.90
21772;DHT22;11047;47.904;8.110;2023-04-03T14:54:33;3.10;99.90
21772;DHT22;11047;47.904;8.110;2023-04-03T14:57:01;3.20;99.90
21772;DHT22;11047;47.904;8.110;2023-04-03T14:59:29;3.20;99.90
21772;DHT22;11047;47.904;8.110;2023-04-03T15:01:57;3.20;99.90
21772;DHT22;11047;47.904;8.110;2023-04-03T15:04:23;3.20;99.90
21772;DHT22;11047;47.904;8.110;2023-04-03T15:06:52;4.00;99.90
21772;DHT22;11047;47.904;8.110;2023-04-03T15:09:21;3.10;99.90
21772;DHT22;11047;47.904;8.110;2023-04-03T15:11:48;3.10;99.90
21772;DHT22;11047;47.904;8.110;2023-04-03T15:14:15;3.10;99.90
21772;DHT22;11047;47.904;8.110;2023-04-03T15:16:43;3.00;99.90
21772;DHT22;11047;47.904;8.110;2023-04-03T15:19:10;3.00;99.90
21772;DHT22;11047;47.904;8.110;2023-04-03T15:21:37;3.00;99.90
21772;DHT22;11047;47.904;8.110;2023-04-03T15:24:05;3.10;99.90
21772;DHT22;11047;47.904;8.110;2023-04-03T15:26:33;3.00;99.90
21772;DHT22;11047;47.904;8.110;2023-04-03T15:29:00;3.10;99.90
21772;DHT22;11047;47.904;8.110;2023-04-03T15:31:27;3.90;99.90
21772;DHT22;11047;47.904;8.110;2023-04-03T15:33:54;3.10;99.90
21772;DHT22;11047;47.904;8.110;2023-04-03T15:36:21;3.10;99.90
21772;DHT22;11047;47.904;8.110;2023-04-03T15:38:49;3.00;99.90
21772;DHT22;11047;47.904;8.110;2023-04-03T15:41:17;3.00;99.90
21772;DHT22;11047;47.904;8.110;2023-04-03T15:43:45;2.40;99.90
21772;DHT22;11047;47.904;8.110;2023-04-03T15:46:13;3.10;99.90
21772;DHT22;11047;47.904;8.110;2023-04-03T15:48:40;3.10;99.90
21772;DHT22;11047;47.904;8.110;2023-04-03T15:51:07;3.20;99.90
21772;DHT22;11047;47.904;8.110;2023-04-03T15:53:34;2.90;99.90
21772;DHT22;11047;47.904;8.110;2023-04-03T15:56:01;2.80;99.90
21772;DHT22;11047;47.904;8.110;2023-04-03T15:58:29;2.60;99.90
21772;DHT22;11047;47.904;8.110;2023-04-03T16:00:56;2.50;99.90
21772;DHT22;11047;47.904;8.110;2023-04-03T16:03:23;2.60;99.90
21772;DHT22;11047;47.904;8.110;2023-04-03T16:05:50;2.60;99.90
21772;DHT22;11047;47.904;8.110;2023-04-03T16:08:18;2.70;99.90
21772;DHT22;11047;47.904;8.110;2023-04-03T16:10:45;2.60;99.90
21772;DHT22;11047;47.904;8.110;2023-04-03T16:13:12;2.60;99.90
21772;DHT22;11047;47.904;8.110;2023-04-03T16:15:41;2.50;99.90
21772;DHT22;11047;47.904;8.110;2023-04-03T16:18:08;2.50;99.90
21772;DHT22;11047;47.904;8.110;2023-04-03T16:20:36;2.50;99.90